createdAt,value
2023-01-26T00:00:06.583Z,1020.22
2023-01-26T00:00:36.443Z,1020.01
2023-01-26T00:01:07.299Z,1020.01
2023-01-26T00:01:38.706Z,1020.01
2023-01-26T00:02:09.340Z,1020.01
2023-01-26T00:02:40.841Z,1019.91
2023-01-26T00:03:11.369Z,1019.91
2023-01-26T00:03:48.883Z,1019.91
2023-01-26T00:04:13.499Z,1019.91
2023-01-26T00:04:45.993Z,1019.91
2023-01-26T00:05:15.944Z,1019.91
2023-01-26T00:05:47.308Z,1019.91
2023-01-26T00:06:17.767Z,1019.91
2023-01-26T00:06:48.422Z,1019.91
2023-01-26T00:07:19.781Z,1019.91
2023-01-26T00:07:50.573Z,1020.01
2023-01-26T00:08:21.578Z,1020.22
2023-01-26T00:08:52.714Z,1020.22
2023-01-26T00:09:23.732Z,1019.91
2023-01-26T00:09:54.603Z,1019.91
2023-01-26T00:10:26.158Z,1020.01
2023-01-26T00:10:56.470Z,1020.01
2023-01-26T00:11:27.659Z,1019.91
2023-01-26T00:11:58.613Z,1019.91
2023-01-26T00:12:29.650Z,1019.81
2023-01-26T00:13:00.414Z,1019.81
2023-01-26T00:13:31.698Z,1020.01
2023-01-26T00:14:02.720Z,1020.01
2023-01-26T00:14:33.373Z,1020.01
2023-01-26T00:15:05.534Z,1020.01
2023-01-26T00:15:35.518Z,1020.01
2023-01-26T00:16:06.667Z,1020.01
2023-01-26T00:16:37.435Z,1019.81
2023-01-26T00:17:08.617Z,1019.81
2023-01-26T00:17:39.624Z,1020.01
2023-01-26T00:18:10.622Z,1020.01
2023-01-26T00:18:41.641Z,1020.11
2023-01-26T00:19:12.794Z,1020.11
2023-01-26T00:19:43.669Z,1019.91
2023-01-26T00:20:15.544Z,1019.91
2023-01-26T00:20:45.981Z,1019.91
2023-01-26T00:21:16.551Z,1019.91
2023-01-26T00:21:47.925Z,1020.01
2023-01-26T00:22:18.412Z,1020.01
2023-01-26T00:22:50.025Z,1020.22
2023-01-26T00:23:21.258Z,1020.22
2023-01-26T00:23:52.092Z,1019.91
2023-01-26T00:24:22.596Z,1020.11
2023-01-26T00:24:54.238Z,1020.11
2023-01-26T00:25:25.090Z,1019.91
2023-01-26T00:25:56.039Z,1019.91
2023-01-26T00:26:27.365Z,1020.11
2023-01-26T00:26:59.452Z,1020.11
2023-01-26T00:27:29.020Z,1019.91
2023-01-26T00:27:59.444Z,1019.91
2023-01-26T00:28:30.462Z,1019.91
2023-01-26T00:29:01.797Z,1019.91
2023-01-26T00:29:32.719Z,1020.01
2023-01-26T00:30:04.881Z,1020.01
2023-01-26T00:30:34.863Z,1019.91
2023-01-26T00:31:05.833Z,1019.91
2023-01-26T00:31:36.563Z,1020.11
2023-01-26T00:32:07.449Z,1020.11
2023-01-26T00:32:38.649Z,1020.01
2023-01-26T00:33:10.072Z,1020.01
2023-01-26T00:33:40.470Z,1019.91
2023-01-26T00:34:12.042Z,1019.91
2023-01-26T00:34:42.979Z,1020.01
2023-01-26T00:35:15.075Z,1020.01
2023-01-26T00:35:44.624Z,1020.01
2023-01-26T00:36:16.627Z,1020.01
2023-01-26T00:36:46.801Z,1019.91
2023-01-26T00:37:18.299Z,1019.91
2023-01-26T00:37:49.148Z,1019.81
2023-01-26T00:38:19.418Z,1019.81
2023-01-26T00:38:51.041Z,1019.71
2023-01-26T00:39:21.590Z,1019.71
2023-01-26T00:39:53.058Z,1019.71
2023-01-26T00:40:24.209Z,1019.71
2023-01-26T00:40:54.490Z,1019.71
2023-01-26T00:41:26.085Z,1019.91
2023-01-26T00:41:56.986Z,1019.91
2023-01-26T00:42:27.475Z,1019.81
2023-01-26T00:42:58.977Z,1019.81
2023-01-26T00:43:29.523Z,1019.91
2023-01-26T00:44:01.024Z,1019.91
2023-01-26T00:44:31.482Z,1019.81
2023-01-26T00:45:03.742Z,1019.81
2023-01-26T00:45:34.001Z,1019.91
2023-01-26T00:46:05.042Z,1019.91
2023-01-26T00:46:36.491Z,1019.81
2023-01-26T00:47:07.061Z,1019.81
2023-01-26T00:47:38.218Z,1019.61
2023-01-26T00:48:09.098Z,1019.61
2023-01-26T00:48:39.864Z,1019.91
2023-01-26T00:49:10.923Z,1019.91
2023-01-26T00:49:41.523Z,1019.91
2023-01-26T00:50:13.918Z,1019.91
2023-01-26T00:50:43.765Z,1019.91
2023-01-26T00:51:14.832Z,1019.91
2023-01-26T00:51:46.416Z,1019.81
2023-01-26T00:52:16.896Z,1019.81
2023-01-26T00:52:48.049Z,1019.71
2023-01-26T00:53:18.537Z,1019.71
2023-01-26T00:53:49.565Z,1019.61
2023-01-26T00:54:21.271Z,1019.61
2023-01-26T00:54:51.826Z,1019.61
2023-01-26T00:55:23.043Z,1019.81
2023-01-26T00:55:53.988Z,1019.81
2023-01-26T00:56:24.544Z,1019.71
2023-01-26T00:56:56.421Z,1019.71
2023-01-26T00:57:26.524Z,1019.61
2023-01-26T00:57:57.678Z,1019.61
2023-01-26T00:58:28.964Z,1019.61
2023-01-26T00:58:59.764Z,1019.61
2023-01-26T00:59:30.862Z,1019.91
2023-01-26T01:00:02.551Z,1019.91
2023-01-26T01:00:32.934Z,1019.91
2023-01-26T01:01:03.952Z,1019.91
2023-01-26T01:01:34.786Z,1019.61
2023-01-26T01:02:05.998Z,1019.61
2023-01-26T01:02:36.683Z,1019.50
2023-01-26T01:03:07.965Z,1019.50
2023-01-26T01:03:39.305Z,1019.61
2023-01-26T01:04:09.855Z,1019.61
2023-01-26T01:04:40.602Z,1019.50
2023-01-26T01:05:12.286Z,1019.50
2023-01-26T01:05:43.188Z,1019.61
2023-01-26T01:06:14.163Z,1019.61
2023-01-26T01:06:46.354Z,1019.61
2023-01-26T01:07:15.631Z,1019.61
2023-01-26T01:07:47.741Z,1019.61
2023-01-26T01:08:18.046Z,1019.61
2023-01-26T01:08:49.325Z,1019.50
2023-01-26T01:09:19.872Z,1019.50
2023-01-26T01:09:51.628Z,1019.30
2023-01-26T01:10:22.688Z,1019.61
2023-01-26T01:10:52.894Z,1019.61
2023-01-26T01:11:23.939Z,1019.71
2023-01-26T01:11:54.957Z,1019.71
2023-01-26T01:12:26.008Z,1019.61
2023-01-26T01:12:56.815Z,1019.61
2023-01-26T01:13:28.026Z,1019.50
2023-01-26T01:13:58.708Z,1019.50
2023-01-26T01:14:29.633Z,1019.50
2023-01-26T01:15:01.595Z,1019.50
2023-01-26T01:15:31.864Z,1019.40
2023-01-26T01:16:02.598Z,1019.40
2023-01-26T01:16:33.841Z,1019.50
2023-01-26T01:17:04.582Z,1019.50
2023-01-26T01:17:35.624Z,1019.20
2023-01-26T01:18:07.193Z,1019.20
2023-01-26T01:18:37.935Z,1019.61
2023-01-26T01:19:08.798Z,1019.61
2023-01-26T01:19:39.802Z,1019.61
2023-01-26T01:20:11.400Z,1019.61
2023-01-26T01:20:41.817Z,1019.61
2023-01-26T01:21:12.778Z,1019.61
2023-01-26T01:21:43.766Z,1019.71
2023-01-26T01:22:14.880Z,1019.71
2023-01-26T01:22:45.853Z,1019.71
2023-01-26T01:23:16.952Z,1019.71
2023-01-26T01:23:47.867Z,1019.71
2023-01-26T01:24:18.895Z,1019.71
2023-01-26T01:24:49.610Z,1019.40
2023-01-26T01:25:22.525Z,1019.40
2023-01-26T01:25:51.930Z,1019.61
2023-01-26T01:26:23.300Z,1019.50
2023-01-26T01:26:53.873Z,1019.50
2023-01-26T01:27:24.799Z,1019.50
2023-01-26T01:27:55.808Z,1019.50
2023-01-26T01:28:26.883Z,1019.61
2023-01-26T01:28:57.946Z,1019.61
2023-01-26T01:29:28.837Z,1019.71
2023-01-26T01:29:59.601Z,1019.71
2023-01-26T01:30:31.464Z,1019.50
2023-01-26T01:31:02.114Z,1019.50
2023-01-26T01:31:32.976Z,1019.40
2023-01-26T01:32:03.971Z,1019.40
2023-01-26T01:32:36.590Z,1019.50
2023-01-26T01:33:05.642Z,1019.50
2023-01-26T01:33:36.620Z,1019.30
2023-01-26T01:34:07.541Z,1019.30
2023-01-26T01:34:38.830Z,1019.20
2023-01-26T01:35:10.267Z,1019.20
2023-01-26T01:35:40.662Z,1019.40
2023-01-26T01:36:11.907Z,1019.40
2023-01-26T01:36:43.199Z,1019.30
2023-01-26T01:37:13.849Z,1019.30
2023-01-26T01:37:44.628Z,1019.30
2023-01-26T01:38:16.440Z,1019.30
2023-01-26T01:38:46.921Z,1019.50
2023-01-26T01:39:17.999Z,1019.50
2023-01-26T01:39:48.822Z,1019.30
2023-01-26T01:40:20.986Z,1019.30
2023-01-26T01:40:51.223Z,1019.50
2023-01-26T01:41:22.138Z,1019.40
2023-01-26T01:41:52.824Z,1019.40
2023-01-26T01:42:24.090Z,1019.20
2023-01-26T01:42:55.101Z,1019.20
2023-01-26T01:43:25.728Z,1019.30
2023-01-26T01:43:56.973Z,1019.30
2023-01-26T01:44:28.466Z,1019.20
2023-01-26T01:44:59.540Z,1019.20
2023-01-26T01:45:31.237Z,1019.30
2023-01-26T01:46:00.684Z,1019.30
2023-01-26T01:46:31.954Z,1019.40
2023-01-26T01:47:02.646Z,1019.40
2023-01-26T01:47:33.711Z,1019.30
2023-01-26T01:48:04.693Z,1019.30
2023-01-26T01:48:35.736Z,1019.61
2023-01-26T01:49:07.265Z,1019.61
2023-01-26T01:49:38.491Z,1019.20
2023-01-26T01:50:09.362Z,1019.20
2023-01-26T01:50:40.510Z,1019.20
2023-01-26T01:51:11.291Z,1019.20
2023-01-26T01:51:42.382Z,1019.40
2023-01-26T01:52:13.382Z,1019.40
2023-01-26T01:52:44.044Z,1019.00
2023-01-26T01:53:14.842Z,1019.00
2023-01-26T01:53:46.021Z,1019.30
2023-01-26T01:54:17.122Z,1019.30
2023-01-26T01:54:48.073Z,1019.00
2023-01-26T01:55:19.472Z,1019.00
2023-01-26T01:55:50.106Z,1019.20
2023-01-26T01:56:21.284Z,1019.20
2023-01-26T01:56:51.748Z,1019.30
2023-01-26T01:57:22.737Z,1019.30
2023-01-26T01:57:53.871Z,1019.30
2023-01-26T01:58:25.661Z,1019.30
2023-01-26T01:58:55.766Z,1019.30
2023-01-26T01:59:27.330Z,1019.10
2023-01-26T01:59:58.432Z,1019.10
2023-01-26T02:00:29.647Z,1019.10
2023-01-26T02:01:00.385Z,1019.10
2023-01-26T02:01:30.723Z,1019.30
2023-01-26T02:02:02.290Z,1019.30
2023-01-26T02:02:33.377Z,1018.90
2023-01-26T02:03:04.281Z,1018.90
2023-01-26T02:03:34.740Z,1019.30
2023-01-26T02:04:06.177Z,1019.30
2023-01-26T02:04:37.531Z,1019.00
2023-01-26T02:05:08.304Z,1019.00
2023-01-26T02:05:39.616Z,1019.20
2023-01-26T02:06:10.706Z,1019.20
2023-01-26T02:06:41.165Z,1019.10
2023-01-26T02:07:11.759Z,1019.10
2023-01-26T02:07:43.321Z,1019.10
2023-01-26T02:08:14.018Z,1019.10
2023-01-26T02:08:44.773Z,1019.00
2023-01-26T02:09:16.208Z,1019.00
2023-01-26T02:09:48.299Z,1018.90
2023-01-26T02:10:18.642Z,1018.90
2023-01-26T02:10:51.035Z,1019.00
2023-01-26T02:11:19.841Z,1019.00
2023-01-26T02:11:52.503Z,1018.69
2023-01-26T02:12:21.860Z,1018.79
2023-01-26T02:12:52.993Z,1018.79
2023-01-26T02:13:24.078Z,1018.69
2023-01-26T02:13:55.131Z,1018.69
2023-01-26T02:14:26.303Z,1018.90
2023-01-26T02:14:57.103Z,1018.90
2023-01-26T02:15:28.902Z,1018.79
2023-01-26T02:15:58.931Z,1018.79
2023-01-26T02:16:30.314Z,1018.90
2023-01-26T02:17:01.184Z,1018.90
2023-01-26T02:17:31.830Z,1018.90
2023-01-26T02:18:02.892Z,1018.90
2023-01-26T02:18:34.308Z,1018.90
2023-01-26T02:19:05.477Z,1018.90
2023-01-26T02:19:36.799Z,1018.90
2023-01-26T02:20:07.382Z,1018.90
2023-01-26T02:20:38.196Z,1018.69
2023-01-26T02:21:09.125Z,1018.69
2023-01-26T02:21:39.808Z,1018.59
2023-01-26T02:22:10.850Z,1018.59
2023-01-26T02:22:42.137Z,1018.79
2023-01-26T02:23:12.996Z,1018.79
2023-01-26T02:23:43.947Z,1018.79
2023-01-26T02:24:15.324Z,1018.79
2023-01-26T02:24:46.227Z,1018.90
2023-01-26T02:25:17.567Z,1018.90
2023-01-26T02:25:48.121Z,1018.69
2023-01-26T02:26:18.817Z,1018.69
2023-01-26T02:26:50.203Z,1018.69
2023-01-26T02:27:21.222Z,1018.69
2023-01-26T02:27:52.042Z,1018.59
2023-01-26T02:28:23.249Z,1018.79
2023-01-26T02:28:54.145Z,1018.79
2023-01-26T02:29:25.214Z,1018.90
2023-01-26T02:29:56.053Z,1018.90
2023-01-26T02:30:28.064Z,1018.79
2023-01-26T02:30:57.903Z,1018.79
2023-01-26T02:31:28.867Z,1018.79
2023-01-26T02:31:59.887Z,1018.79
2023-01-26T02:32:30.930Z,1018.79
2023-01-26T02:33:02.249Z,1018.79
2023-01-26T02:33:32.806Z,1018.90
2023-01-26T02:34:04.285Z,1018.90
2023-01-26T02:34:34.873Z,1018.79
2023-01-26T02:35:06.146Z,1018.79
2023-01-26T02:35:36.825Z,1018.79
2023-01-26T02:36:07.812Z,1018.79
2023-01-26T02:36:39.044Z,1018.79
2023-01-26T02:37:09.839Z,1018.79
2023-01-26T02:37:40.880Z,1018.79
2023-01-26T02:38:11.995Z,1018.79
2023-01-26T02:38:43.119Z,1018.90
2023-01-26T02:39:14.077Z,1018.90
2023-01-26T02:39:44.873Z,1018.69
2023-01-26T02:40:16.318Z,1018.69
2023-01-26T02:40:46.935Z,1019.00
2023-01-26T02:41:20.090Z,1019.00
2023-01-26T02:41:49.003Z,1018.90
2023-01-26T02:42:21.073Z,1018.90
2023-01-26T02:42:50.807Z,1018.79
2023-01-26T02:43:23.214Z,1019.00
2023-01-26T02:43:53.168Z,1019.00
2023-01-26T02:44:24.228Z,1018.90
2023-01-26T02:44:55.315Z,1018.90
2023-01-26T02:45:26.719Z,1018.79
2023-01-26T02:45:56.988Z,1018.79
2023-01-26T02:46:28.447Z,1018.79
2023-01-26T02:46:58.888Z,1018.79
2023-01-26T02:47:30.252Z,1018.79
2023-01-26T02:48:00.828Z,1018.79
2023-01-26T02:48:31.906Z,1018.49
2023-01-26T02:49:02.893Z,1018.49
2023-01-26T02:49:34.081Z,1018.59
2023-01-26T02:50:05.315Z,1018.59
2023-01-26T02:50:35.928Z,1018.49
2023-01-26T02:51:07.113Z,1018.49
2023-01-26T02:51:37.895Z,1018.69
2023-01-26T02:52:09.497Z,1018.69
2023-01-26T02:52:40.837Z,1018.79
2023-01-26T02:53:11.258Z,1018.79
2023-01-26T02:53:41.908Z,1018.69
2023-01-26T02:54:12.928Z,1018.69
2023-01-26T02:54:44.312Z,1018.59
2023-01-26T02:55:15.512Z,1018.59
2023-01-26T02:55:45.865Z,1018.79
2023-01-26T02:56:17.484Z,1018.79
2023-01-26T02:56:47.981Z,1018.59
2023-01-26T02:57:19.519Z,1018.59
2023-01-26T02:57:49.959Z,1018.69
2023-01-26T02:58:20.889Z,1018.69
2023-01-26T02:58:52.131Z,1018.79
2023-01-26T02:59:23.413Z,1018.69
2023-01-26T02:59:54.137Z,1018.69
2023-01-26T03:00:26.089Z,1018.49
2023-01-26T03:00:56.315Z,1018.49
2023-01-26T03:01:27.068Z,1018.69
2023-01-26T03:01:58.481Z,1018.69
2023-01-26T03:02:28.912Z,1018.49
2023-01-26T03:03:00.224Z,1018.49
2023-01-26T03:03:31.173Z,1018.59
2023-01-26T03:04:02.109Z,1018.59
2023-01-26T03:04:32.912Z,1018.39
2023-01-26T03:05:04.543Z,1018.39
2023-01-26T03:05:35.101Z,1018.59
2023-01-26T03:06:06.303Z,1018.59
2023-01-26T03:06:37.229Z,1018.59
2023-01-26T03:07:08.573Z,1018.59
2023-01-26T03:07:39.293Z,1018.49
2023-01-26T03:08:10.444Z,1018.49
2023-01-26T03:08:41.262Z,1018.49
2023-01-26T03:09:12.322Z,1018.49
2023-01-26T03:09:43.352Z,1018.49
2023-01-26T03:10:14.426Z,1018.49
2023-01-26T03:10:45.308Z,1018.39
2023-01-26T03:11:15.939Z,1018.39
2023-01-26T03:11:46.982Z,1018.49
2023-01-26T03:12:17.984Z,1018.49
2023-01-26T03:12:51.257Z,1018.49
2023-01-26T03:13:20.327Z,1018.49
2023-01-26T03:13:53.063Z,1018.49
2023-01-26T03:14:22.161Z,1018.49
2023-01-26T03:14:53.961Z,1018.49
2023-01-26T03:15:25.054Z,1018.39
2023-01-26T03:15:55.096Z,1018.39
2023-01-26T03:16:26.054Z,1018.39
2023-01-26T03:16:57.401Z,1018.39
2023-01-26T03:17:28.388Z,1018.39
2023-01-26T03:17:59.343Z,1018.39
2023-01-26T03:18:30.626Z,1018.18
2023-01-26T03:19:01.034Z,1018.18
2023-01-26T03:19:32.020Z,1018.18
2023-01-26T03:20:03.323Z,1018.18
2023-01-26T03:20:34.009Z,1018.18
2023-01-26T03:21:05.165Z,1018.18
2023-01-26T03:21:36.042Z,1018.39
2023-01-26T03:22:07.481Z,1018.39
2023-01-26T03:22:38.169Z,1018.29
2023-01-26T03:23:09.111Z,1018.29
2023-01-26T03:23:40.442Z,1018.59
2023-01-26T03:24:11.402Z,1018.59
2023-01-26T03:24:42.327Z,1018.39
2023-01-26T03:25:14.108Z,1018.39
2023-01-26T03:25:44.313Z,1018.39
2023-01-26T03:26:15.383Z,1018.39
2023-01-26T03:26:46.389Z,1018.49
2023-01-26T03:27:17.299Z,1018.49
2023-01-26T03:27:48.455Z,1018.59
2023-01-26T03:28:19.393Z,1018.59
2023-01-26T03:28:50.473Z,1018.59
2023-01-26T03:29:21.142Z,1018.59
2023-01-26T03:29:52.001Z,1018.39
2023-01-26T03:30:23.886Z,1018.49
2023-01-26T03:30:54.096Z,1018.49
2023-01-26T03:31:25.243Z,1018.39
2023-01-26T03:31:55.985Z,1018.39
2023-01-26T03:32:27.085Z,1018.39
2023-01-26T03:32:58.193Z,1018.39
2023-01-26T03:33:29.660Z,1018.39
2023-01-26T03:34:00.255Z,1018.39
2023-01-26T03:34:31.271Z,1018.39
2023-01-26T03:35:02.217Z,1018.39
2023-01-26T03:35:33.359Z,1018.18
2023-01-26T03:36:04.399Z,1018.18
2023-01-26T03:36:35.456Z,1018.29
2023-01-26T03:37:07.715Z,1018.29
2023-01-26T03:37:37.089Z,1018.08
2023-01-26T03:38:08.307Z,1018.08
2023-01-26T03:38:39.439Z,1018.08
2023-01-26T03:39:10.403Z,1018.08
2023-01-26T03:39:41.429Z,1018.18
2023-01-26T03:40:12.728Z,1018.18
2023-01-26T03:40:42.969Z,1018.18
2023-01-26T03:41:14.093Z,1018.18
2023-01-26T03:41:45.041Z,1018.08
2023-01-26T03:42:16.128Z,1018.08
2023-01-26T03:42:47.243Z,1018.18
2023-01-26T03:43:18.293Z,1018.18
2023-01-26T03:43:49.043Z,1018.18
2023-01-26T03:44:22.995Z,1018.29
2023-01-26T03:44:51.083Z,1018.29
2023-01-26T03:45:24.764Z,1018.18
2023-01-26T03:45:53.185Z,1018.18
2023-01-26T03:46:24.651Z,1018.18
2023-01-26T03:46:55.372Z,1018.18
2023-01-26T03:47:26.258Z,1018.18
2023-01-26T03:47:57.326Z,1018.18
2023-01-26T03:48:28.397Z,1018.29
2023-01-26T03:48:59.373Z,1018.29
2023-01-26T03:49:30.112Z,1018.18
2023-01-26T03:50:01.306Z,1018.18
2023-01-26T03:50:32.099Z,1018.39
2023-01-26T03:51:03.062Z,1018.39
2023-01-26T03:51:34.098Z,1018.18
2023-01-26T03:52:05.791Z,1018.18
2023-01-26T03:52:36.479Z,1018.39
2023-01-26T03:53:07.139Z,1018.39
2023-01-26T03:53:38.182Z,1018.08
2023-01-26T03:54:09.194Z,1018.08
2023-01-26T03:54:40.486Z,1018.08
2023-01-26T03:55:12.319Z,1018.08
2023-01-26T03:55:42.462Z,1018.18
2023-01-26T03:56:13.488Z,1018.18
2023-01-26T03:56:44.119Z,1018.29
2023-01-26T03:57:15.263Z,1018.29
2023-01-26T03:57:46.145Z,1018.08
2023-01-26T03:58:17.493Z,1018.08
2023-01-26T03:58:52.565Z,1018.29
2023-01-26T03:59:21.563Z,1018.29
2023-01-26T03:59:50.448Z,1018.39
2023-01-26T04:00:22.757Z,1018.39
2023-01-26T04:00:52.306Z,1018.49
2023-01-26T04:01:23.703Z,1018.18
2023-01-26T04:01:54.137Z,1018.18
2023-01-26T04:02:25.331Z,1018.18
2023-01-26T04:02:56.384Z,1018.18
2023-01-26T04:03:27.459Z,1018.29
2023-01-26T04:03:58.430Z,1018.29
2023-01-26T04:04:29.438Z,1018.49
2023-01-26T04:05:00.787Z,1018.49
2023-01-26T04:05:31.490Z,1018.01
2023-01-26T04:06:16.197Z,1018.01
2023-01-26T04:06:33.406Z,1018.29
2023-01-26T04:07:04.078Z,1018.29
2023-01-26T04:07:35.187Z,1018.39
2023-01-26T04:08:06.428Z,1018.39
2023-01-26T04:08:37.513Z,1018.18
2023-01-26T04:09:08.454Z,1018.18
2023-01-26T04:09:39.576Z,1018.18
2023-01-26T04:10:11.242Z,1018.18
2023-01-26T04:10:41.136Z,1018.39
2023-01-26T04:11:12.554Z,1018.39
2023-01-26T04:11:43.757Z,1018.18
2023-01-26T04:12:14.167Z,1018.18
2023-01-26T04:12:45.976Z,1018.18
2023-01-26T04:13:16.200Z,1018.18
2023-01-26T04:13:47.547Z,1018.29
2023-01-26T04:14:18.454Z,1018.29
2023-01-26T04:14:50.703Z,1018.18
2023-01-26T04:15:21.796Z,1018.18
2023-01-26T04:15:53.920Z,1018.18
2023-01-26T04:16:22.278Z,1018.18
2023-01-26T04:16:55.004Z,1018.18
2023-01-26T04:17:24.417Z,1018.18
2023-01-26T04:17:55.931Z,1018.18
2023-01-26T04:18:26.232Z,1018.39
2023-01-26T04:18:57.148Z,1018.39
2023-01-26T04:19:28.208Z,1018.18
2023-01-26T04:19:59.227Z,1018.18
2023-01-26T04:20:30.953Z,1018.29
2023-01-26T04:21:01.364Z,1018.29
2023-01-26T04:21:32.281Z,1018.49
2023-01-26T04:22:03.738Z,1018.49
2023-01-26T04:22:34.512Z,1018.08
2023-01-26T04:23:05.462Z,1018.08
2023-01-26T04:23:36.538Z,1018.18
2023-01-26T04:24:07.247Z,1018.18
2023-01-26T04:24:38.303Z,1018.08
2023-01-26T04:25:09.940Z,1018.08
2023-01-26T04:25:40.302Z,1018.29
2023-01-26T04:26:11.403Z,1018.29
2023-01-26T04:26:42.599Z,1018.18
2023-01-26T04:27:13.664Z,1018.18
2023-01-26T04:27:44.248Z,1018.29
2023-01-26T04:28:15.248Z,1018.29
2023-01-26T04:28:46.237Z,1018.49
2023-01-26T04:29:17.334Z,1018.49
2023-01-26T04:29:48.402Z,1018.29
2023-01-26T04:30:20.631Z,1018.29
2023-01-26T04:30:50.515Z,1018.18
2023-01-26T04:31:21.607Z,1018.18
2023-01-26T04:31:52.299Z,1018.18
2023-01-26T04:32:24.074Z,1018.08
2023-01-26T04:32:54.294Z,1018.08
2023-01-26T04:33:25.264Z,1018.08
2023-01-26T04:33:56.491Z,1018.08
2023-01-26T04:34:27.625Z,1018.29
2023-01-26T04:34:58.216Z,1018.29
2023-01-26T04:35:30.250Z,1018.18
2023-01-26T04:36:00.510Z,1018.18
2023-01-26T04:36:31.263Z,1018.08
2023-01-26T04:37:02.278Z,1018.08
2023-01-26T04:37:33.515Z,1018.01
2023-01-26T04:38:04.397Z,1018.01
2023-01-26T04:38:35.567Z,1018.08
2023-01-26T04:39:07.647Z,1018.08
2023-01-26T04:39:37.692Z,1018.39
2023-01-26T04:40:09.177Z,1018.39
2023-01-26T04:40:39.528Z,1018.08
2023-01-26T04:41:10.612Z,1018.08
2023-01-26T04:41:42.451Z,1018.18
2023-01-26T04:42:12.459Z,1018.18
2023-01-26T04:42:43.650Z,1018.29
2023-01-26T04:43:14.238Z,1018.29
2023-01-26T04:43:45.254Z,1018.01
2023-01-26T04:44:16.709Z,1018.01
2023-01-26T04:44:47.269Z,1018.08
2023-01-26T04:45:19.265Z,1018.08
2023-01-26T04:45:49.411Z,1018.08
2023-01-26T04:46:20.362Z,1018.08
2023-01-26T04:46:51.548Z,1018.08
2023-01-26T04:47:24.683Z,1018.08
2023-01-26T04:47:53.478Z,1018.08
2023-01-26T04:48:25.567Z,1018.29
2023-01-26T04:48:55.261Z,1018.29
2023-01-26T04:49:27.275Z,1017.81
2023-01-26T04:49:57.311Z,1017.81
2023-01-26T04:50:28.799Z,1018.01
2023-01-26T04:50:59.376Z,1018.01
2023-01-26T04:51:30.630Z,1018.08
2023-01-26T04:52:01.231Z,1018.08
2023-01-26T04:52:33.015Z,1017.91
2023-01-26T04:53:03.291Z,1017.91
2023-01-26T04:53:34.655Z,1018.01
2023-01-26T04:54:05.266Z,1018.01
2023-01-26T04:54:36.506Z,1017.91
2023-01-26T04:55:07.674Z,1017.91
2023-01-26T04:55:38.393Z,1018.08
2023-01-26T04:56:09.923Z,1018.08
2023-01-26T04:56:40.473Z,1018.01
2023-01-26T04:57:11.644Z,1018.01
2023-01-26T04:57:42.296Z,1018.01
2023-01-26T04:58:13.307Z,1018.01
2023-01-26T04:58:44.693Z,1018.08
2023-01-26T04:59:15.357Z,1018.08
2023-01-26T04:59:46.282Z,1018.18
2023-01-26T05:00:18.532Z,1018.18
2023-01-26T05:00:48.682Z,1018.08
2023-01-26T05:01:19.889Z,1018.08
2023-01-26T05:01:50.669Z,1018.01
2023-01-26T05:02:21.613Z,1018.01
2023-01-26T05:02:52.654Z,1017.91
2023-01-26T05:03:23.374Z,1017.91
2023-01-26T05:03:54.659Z,1017.91
2023-01-26T05:04:25.361Z,1018.08
2023-01-26T05:04:56.329Z,1018.08
2023-01-26T05:05:28.042Z,1018.01
2023-01-26T05:05:58.709Z,1018.01
2023-01-26T05:06:29.313Z,1018.18
2023-01-26T05:07:00.359Z,1018.18
2023-01-26T05:07:31.679Z,1018.08
2023-01-26T05:08:02.542Z,1018.08
2023-01-26T05:08:33.341Z,1018.18
2023-01-26T05:09:04.853Z,1018.18
2023-01-26T05:09:35.736Z,1018.01
2023-01-26T05:10:06.862Z,1018.01
2023-01-26T05:10:37.651Z,1018.08
2023-01-26T05:11:08.679Z,1018.08
2023-01-26T05:11:39.592Z,1018.08
2023-01-26T05:12:10.612Z,1018.08
2023-01-26T05:12:41.349Z,1018.08
2023-01-26T05:13:12.518Z,1018.08
2023-01-26T05:13:43.397Z,1017.91
2023-01-26T05:14:14.591Z,1017.91
2023-01-26T05:14:45.403Z,1018.01
2023-01-26T05:15:17.602Z,1018.01
2023-01-26T05:15:47.428Z,1018.18
2023-01-26T05:16:18.476Z,1018.18
2023-01-26T05:16:49.685Z,1018.18
2023-01-26T05:17:20.472Z,1018.18
2023-01-26T05:17:51.443Z,1018.08
2023-01-26T05:18:22.527Z,1018.29
2023-01-26T05:18:55.424Z,1018.29
2023-01-26T05:19:24.368Z,1018.08
2023-01-26T05:19:56.303Z,1018.08
2023-01-26T05:20:26.687Z,1018.01
2023-01-26T05:20:58.743Z,1018.01
2023-01-26T05:21:28.410Z,1018.08
2023-01-26T05:22:00.409Z,1018.08
2023-01-26T05:22:30.518Z,1018.01
2023-01-26T05:23:01.310Z,1018.01
2023-01-26T05:23:32.521Z,1018.08
2023-01-26T05:24:03.735Z,1018.08
2023-01-26T05:24:34.572Z,1018.08
2023-01-26T05:25:05.689Z,1018.08
2023-01-26T05:25:36.444Z,1017.91
2023-01-26T05:26:07.420Z,1017.91
2023-01-26T05:26:38.656Z,1017.91
2023-01-26T05:27:09.421Z,1017.91
2023-01-26T05:27:40.423Z,1018.08
2023-01-26T05:28:11.387Z,1018.08
2023-01-26T05:28:42.473Z,1018.08
2023-01-26T05:29:13.604Z,1018.08
2023-01-26T05:29:44.413Z,1018.01
2023-01-26T05:30:16.969Z,1018.01
2023-01-26T05:30:46.931Z,1018.08
2023-01-26T05:31:18.406Z,1018.08
2023-01-26T05:31:49.376Z,1017.91
2023-01-26T05:32:19.862Z,1017.91
2023-01-26T05:32:51.192Z,1018.18
2023-01-26T05:33:21.423Z,1018.18
2023-01-26T05:33:52.901Z,1018.08
2023-01-26T05:34:24.158Z,1017.91
2023-01-26T05:34:54.943Z,1017.91
2023-01-26T05:35:26.384Z,1018.18
2023-01-26T05:35:56.407Z,1018.18
2023-01-26T05:36:27.644Z,1018.29
2023-01-26T05:36:58.463Z,1018.29
2023-01-26T05:37:30.030Z,1018.08
2023-01-26T05:38:00.929Z,1018.08
2023-01-26T05:38:31.559Z,1018.01
2023-01-26T05:39:02.801Z,1018.01
2023-01-26T05:39:33.750Z,1018.08
2023-01-26T05:40:04.871Z,1018.08
2023-01-26T05:40:35.503Z,1018.29
2023-01-26T05:41:06.632Z,1018.29
2023-01-26T05:41:37.831Z,1018.18
2023-01-26T05:42:08.794Z,1018.18
2023-01-26T05:42:39.873Z,1018.29
2023-01-26T05:43:10.888Z,1018.29
2023-01-26T05:43:41.850Z,1018.01
2023-01-26T05:44:12.495Z,1018.01
2023-01-26T05:44:44.387Z,1018.18
2023-01-26T05:45:15.772Z,1018.18
2023-01-26T05:45:45.586Z,1018.18
2023-01-26T05:46:16.778Z,1018.18
2023-01-26T05:46:47.515Z,1018.08
2023-01-26T05:47:18.547Z,1018.08
2023-01-26T05:47:49.655Z,1018.08
2023-01-26T05:48:20.713Z,1018.08
2023-01-26T05:48:51.482Z,1018.18
2023-01-26T05:49:22.565Z,1018.29
2023-01-26T05:49:53.507Z,1018.29
2023-01-26T05:50:26.125Z,1018.29
2023-01-26T05:50:55.740Z,1018.29
2023-01-26T05:51:29.274Z,1018.18
2023-01-26T05:51:57.743Z,1018.18
2023-01-26T05:52:29.114Z,1018.18
2023-01-26T05:52:59.827Z,1018.18
2023-01-26T05:53:31.097Z,1018.18
2023-01-26T05:54:01.482Z,1018.18
2023-01-26T05:54:32.583Z,1018.08
2023-01-26T05:55:03.860Z,1018.08
2023-01-26T05:55:34.503Z,1018.29
2023-01-26T05:56:06.084Z,1018.29
2023-01-26T05:56:36.856Z,1018.39
2023-01-26T05:57:07.510Z,1018.39
2023-01-26T05:57:38.826Z,1018.29
2023-01-26T05:58:09.788Z,1018.29
2023-01-26T05:58:40.813Z,1018.18
2023-01-26T05:59:11.900Z,1018.18
2023-01-26T05:59:42.647Z,1018.29
2023-01-26T06:00:14.521Z,1018.29
2023-01-26T06:00:44.943Z,1018.29
2023-01-26T06:01:15.996Z,1018.29
2023-01-26T06:01:46.763Z,1018.29
2023-01-26T06:02:17.613Z,1018.29
2023-01-26T06:02:48.963Z,1018.29
2023-01-26T06:03:19.492Z,1018.29
2023-01-26T06:03:50.539Z,1018.39
2023-01-26T06:04:21.602Z,1018.39
2023-01-26T06:04:52.563Z,1018.29
2023-01-26T06:05:24.412Z,1018.18
2023-01-26T06:05:54.501Z,1018.18
2023-01-26T06:06:25.565Z,1018.29
2023-01-26T06:06:56.791Z,1018.29
2023-01-26T06:07:27.574Z,1018.29
2023-01-26T06:07:58.735Z,1018.29
2023-01-26T06:08:29.714Z,1018.29
2023-01-26T06:09:00.835Z,1018.29
2023-01-26T06:09:31.526Z,1018.39
2023-01-26T06:10:03.312Z,1018.39
2023-01-26T06:10:33.613Z,1018.29
2023-01-26T06:11:05.089Z,1018.29
2023-01-26T06:11:35.586Z,1018.18
2023-01-26T06:12:06.769Z,1018.18
2023-01-26T06:12:37.928Z,1018.29
2023-01-26T06:13:08.888Z,1018.29
2023-01-26T06:13:39.463Z,1018.18
2023-01-26T06:14:10.580Z,1018.18
2023-01-26T06:14:41.938Z,1018.39